Time;durP1;ratioP1;P1;durP2;ratioP2;P2;SDS_P1;SDS_P2;PMS_P1;PMS_P2;Temp;Humidity;BMP_temperature;BMP_pressure;BME280_temperature;BME280_humidity;BME280_pressure;Samples;Min_cycle;Max_cycle;Signal;HPM_P1;HPM_P2
2021/04/28 00:00:41;;;;;;;3.45;1.58;;;7.80;59.20;;;;;;4969102;28;20046;-70
2021/04/28 00:03:09;;;;;;;5.20;1.50;;;7.80;58.80;;;;;;4966359;28;20129;-70
2021/04/28 00:05:36;;;;;;;2.65;1.60;;;7.80;59.10;;;;;;4965601;28;20054;-70
2021/04/28 00:08:02;;;;;;;3.00;1.77;;;7.80;59.10;;;;;;4966969;28;20038;-70
2021/04/28 00:10:32;;;;;;;5.60;1.98;;;7.70;59.10;;;;;;4965251;28;20036;-70
2021/04/28 00:12:59;;;;;;;5.73;1.90;;;7.70;59.50;;;;;;4968282;28;20023;-70
2021/04/28 00:15:29;;;;;;;3.20;1.75;;;7.70;59.40;;;;;;4969307;28;20053;-71
2021/04/28 00:17:55;;;;;;;3.88;1.83;;;7.70;59.50;;;;;;4968878;28;20023;-70
2021/04/28 00:20:23;;;;;;;5.38;1.60;;;7.60;59.20;;;;;;4961764;28;20940;-70
2021/04/28 00:22:49;;;;;;;3.55;1.77;;;7.60;59.20;;;;;;4968716;28;20070;-70
2021/04/28 00:25:18;;;;;;;4.88;2.05;;;7.60;59.10;;;;;;4968268;28;20090;-71
2021/04/28 00:27:43;;;;;;;4.05;2.30;;;7.60;59.10;;;;;;4966038;28;20023;-71
2021/04/28 00:30:11;;;;;;;3.92;1.40;;;7.60;59.70;;;;;;4967384;28;20019;-70
2021/04/28 00:32:38;;;;;;;3.50;1.83;;;7.50;59.70;;;;;;4965555;28;20031;-70
2021/04/28 00:35:06;;;;;;;3.05;1.40;;;7.50;59.60;;;;;;4966245;28;20429;-70
2021/04/28 00:37:32;;;;;;;2.95;1.40;;;7.50;59.50;;;;;;4968416;28;20523;-70
2021/04/28 00:39:58;;;;;;;2.58;1.58;;;7.50;59.70;;;;;;4964300;28;20063;-70
2021/04/28 00:42:24;;;;;;;3.85;1.70;;;7.50;59.80;;;;;;4968263;28;20148;-70
2021/04/28 00:44:50;;;;;;;5.43;1.77;;;7.40;59.90;;;;;;4967651;28;20118;-70
2021/04/28 00:47:16;;;;;;;2.80;1.70;;;7.40;60.40;;;;;;4968597;28;20023;-70
2021/04/28 00:49:42;;;;;;;3.42;1.60;;;7.40;60.10;;;;;;4968172;28;20031;-70
2021/04/28 00:52:08;;;;;;;2.88;1.67;;;7.30;60.10;;;;;;4968110;28;20031;-70
2021/04/28 00:54:35;;;;;;;1.88;1.50;;;7.40;59.90;;;;;;4969669;28;20039;-70
2021/04/28 00:57:04;;;;;;;4.03;1.73;;;7.30;59.80;;;;;;4966117;28;20092;-70
2021/04/28 00:59:30;;;;;;;4.72;1.80;;;7.40;60.20;;;;;;4966750;28;20416;-70
2021/04/28 01:01:56;;;;;;;3.72;1.50;;;7.30;60.30;;;;;;4966723;28;20031;-71
2021/04/28 01:04:24;;;;;;;2.38;1.20;;;7.30;60.40;;;;;;4966116;28;20395;-71
2021/04/28 01:06:50;;;;;;;2.50;1.45;;;7.30;60.20;;;;;;4964090;28;20035;-70
2021/04/28 01:09:17;;;;;;;3.38;1.48;;;7.30;60.20;;;;;;4967589;28;20109;-70
2021/04/28 01:11:44;;;;;;;1.98;1.20;;;7.20;60.10;;;;;;4966092;28;20055;-73
2021/04/28 01:14:11;;;;;;;4.60;1.55;;;7.20;60.10;;;;;;4967359;28;20035;-70
2021/04/28 01:16:37;;;;;;;2.65;1.48;;;7.20;60.80;;;;;;4966580;28;20027;-70
2021/04/28 01:19:05;;;;;;;2.40;1.35;;;7.20;60.70;;;;;;4966649;28;20035;-71
2021/04/28 01:21:31;;;;;;;3.63;1.55;;;7.10;60.60;;;;;;4962951;28;20035;-70
2021/04/28 01:23:57;;;;;;;4.15;1.75;;;7.10;60.80;;;;;;4965971;28;20035;-70
2021/04/28 01:26:26;;;;;;;2.28;1.40;;;7.10;61.00;;;;;;4966204;28;20036;-70
2021/04/28 01:28:53;;;;;;;4.60;1.52;;;7.10;61.00;;;;;;4969639;28;20127;-70
2021/04/28 01:31:21;;;;;;;3.00;1.50;;;7.10;62.10;;;;;;4969967;28;20082;-70
2021/04/28 01:33:55;;;;;;;2.22;1.10;;;7.00;61.40;;;;;;4967886;28;20030;-70
2021/04/28 01:36:32;;;;;;;3.00;1.40;;;7.00;61.00;;;;;;4966126;28;20039;-71
2021/04/28 01:39:01;;;;;;;3.97;1.38;;;7.00;61.00;;;;;;4971471;28;20054;-70
2021/04/28 01:41:28;;;;;;;2.53;1.50;;;7.00;61.00;;;;;;4964263;28;20042;-71
2021/04/28 01:43:56;;;;;;;2.05;1.15;;;7.00;61.30;;;;;;4966087;28;20039;-70
2021/04/28 01:46:26;;;;;;;1.80;1.30;;;6.90;61.30;;;;;;4969339;28;20049;-69
2021/04/28 01:48:52;;;;;;;2.17;1.38;;;6.90;61.40;;;;;;4987525;23;20047;-71
2021/04/28 01:51:19;;;;;;;7.40;1.40;;;6.90;61.50;;;;;;4985660;28;20061;-71
2021/04/28 01:53:46;;;;;;;3.90;1.73;;;6.90;61.40;;;;;;4982360;28;20023;-71
2021/04/28 01:56:12;;;;;;;2.28;1.35;;;6.90;61.50;;;;;;4980199;28;20053;-70
2021/04/28 01:58:39;;;;;;;2.38;1.50;;;6.90;61.80;;;;;;4981307;28;20030;-70
2021/04/28 02:01:07;;;;;;;3.50;1.38;;;6.90;61.20;;;;;;4980204;28;20101;-70
2021/04/28 02:03:33;;;;;;;2.85;1.38;;;6.90;61.40;;;;;;4984076;28;20477;-70
2021/04/28 02:06:01;;;;;;;2.38;1.30;;;6.80;61.40;;;;;;4983405;28;20054;-70
2021/04/28 02:08:27;;;;;;;3.50;1.48;;;6.90;61.50;;;;;;4980063;28;20026;-71
2021/04/28 02:10:53;;;;;;;2.83;1.60;;;6.90;61.60;;;;;;4982135;28;20022;-71
2021/04/28 02:13:21;;;;;;;3.42;1.10;;;6.80;61.30;;;;;;4981725;28;20114;-72
2021/04/28 02:15:49;;;;;;;2.28;1.48;;;6.80;61.20;;;;;;4982869;28;20026;-70
2021/04/28 02:18:16;;;;;;;2.38;1.23;;;6.80;61.70;;;;;;4981897;28;20019;-70
2021/04/28 02:20:43;;;;;;;2.58;1.30;;;6.80;61.60;;;;;;4978644;28;20721;-70
2021/04/28 02:23:09;;;;;;;2.45;1.55;;;6.80;61.40;;;;;;4979739;28;20110;-69
2021/04/28 02:25:35;;;;;;;2.00;1.23;;;6.80;61.60;;;;;;4983535;28;20022;-69
2021/04/28 02:28:01;;;;;;;2.20;1.60;;;6.70;61.40;;;;;;4995722;28;20393;-69
2021/04/28 02:30:30;;;;;;;4.25;1.60;;;6.70;61.40;;;;;;4992970;28;20042;-69
2021/04/28 02:32:59;;;;;;;3.33;1.30;;;6.70;61.50;;;;;;4980764;28;20141;-69
2021/04/28 02:35:26;;;;;;;2.80;1.58;;;6.70;61.20;;;;;;4984926;28;20389;-69
2021/04/28 02:38:30;;;;;;;2.40;1.30;;;6.70;61.40;;;;;;4981277;28;20401;-70
2021/04/28 02:40:57;;;;;;;4.22;1.63;;;6.70;61.30;;;;;;4966116;28;20121;-69
2021/04/28 02:43:23;;;;;;;4.63;1.75;;;6.70;61.50;;;;;;4999105;28;20031;-71
2021/04/28 02:45:51;;;;;;;3.75;1.73;;;6.70;61.20;;;;;;4979708;28;20041;-71
2021/04/28 02:48:20;;;;;;;2.13;1.50;;;6.60;61.40;;;;;;4979712;28;20030;-71
2021/04/28 02:50:46;;;;;;;4.03;1.70;;;6.60;61.50;;;;;;4983007;28;20077;-70
2021/04/28 02:53:14;;;;;;;2.65;1.52;;;6.60;61.50;;;;;;4983660;28;20026;-70
2021/04/28 02:55:40;;;;;;;5.53;1.80;;;6.60;61.50;;;;;;4980913;28;20389;-70
2021/04/28 02:58:07;;;;;;;4.97;1.60;;;6.60;61.60;;;;;;4982414;28;20027;-72
2021/04/28 03:00:33;;;;;;;2.08;1.40;;;6.60;61.70;;;;;;4983770;28;20076;-71
2021/04/28 03:02:59;;;;;;;3.58;1.67;;;6.50;61.50;;;;;;4980973;28;20432;-71
2021/04/28 03:05:26;;;;;;;2.33;1.25;;;6.50;62.00;;;;;;4978322;28;20030;-71
2021/04/28 03:07:53;;;;;;;3.95;1.90;;;6.50;61.70;;;;;;4980456;28;20553;-71
2021/04/28 03:10:20;;;;;;;5.82;1.58;;;6.50;61.70;;;;;;4978705;28;20062;-71
2021/04/28 03:12:46;;;;;;;5.00;1.85;;;6.40;62.20;;;;;;4983694;28;20178;-71
2021/04/28 03:15:15;;;;;;;1.83;1.38;;;6.40;62.00;;;;;;4982337;28;20046;-70
2021/04/28 03:17:41;;;;;;;3.50;1.67;;;6.40;61.90;;;;;;4981204;28;20926;-71
2021/04/28 03:20:08;;;;;;;1.83;1.30;;;6.40;61.70;;;;;;4979866;28;20077;-71
2021/04/28 03:22:38;;;;;;;3.13;1.63;;;6.40;61.70;;;;;;4983622;28;20035;-71
2021/04/28 03:25:06;;;;;;;3.63;1.85;;;6.40;61.90;;;;;;4981254;28;20034;-71
2021/04/28 03:27:32;;;;;;;2.88;1.52;;;6.40;62.40;;;;;;4982880;28;20042;-71
2021/04/28 03:29:58;;;;;;;2.70;1.60;;;6.30;62.10;;;;;;4978439;28;20038;-71
2021/04/28 03:32:25;;;;;;;2.85;1.52;;;6.30;62.30;;;;;;4979079;28;20110;-71
2021/04/28 03:34:51;;;;;;;5.22;1.70;;;6.30;62.20;;;;;;4981002;28;20026;-71
2021/04/28 03:37:20;;;;;;;2.58;1.60;;;6.30;62.40;;;;;;4981382;28;20035;-71
2021/04/28 03:39:45;;;;;;;4.32;1.60;;;6.30;62.30;;;;;;4995612;28;20049;-71
2021/04/28 03:42:14;;;;;;;3.72;1.77;;;6.20;62.10;;;;;;4980157;28;20080;-71
2021/04/28 03:44:40;;;;;;;3.75;2.47;;;6.20;61.90;;;;;;4983170;28;20042;-71
2021/04/28 03:47:05;;;;;;;3.97;2.15;;;6.20;62.10;;;;;;4994979;28;20118;-71
2021/04/28 03:49:31;;;;;;;3.58;1.75;;;6.20;62.20;;;;;;4982106;28;20034;-71
2021/04/28 03:51:57;;;;;;;3.47;1.60;;;6.20;62.20;;;;;;4991997;28;20499;-71
2021/04/28 03:54:23;;;;;;;4.82;1.75;;;6.20;62.30;;;;;;4980234;28;20034;-71
2021/04/28 03:56:48;;;;;;;8.15;1.95;;;6.20;62.10;;;;;;4982910;28;20046;-71
2021/04/28 03:59:14;;;;;;;4.57;1.90;;;6.10;62.50;;;;;;4981299;28;20042;-70
2021/04/28 04:01:41;;;;;;;2.55;1.67;;;6.10;63.00;;;;;;4976830;28;20408;-71
2021/04/28 04:04:07;;;;;;;2.78;1.63;;;6.10;62.50;;;;;;4980495;28;20038;-71
2021/04/28 04:06:33;;;;;;;2.85;1.60;;;6.10;62.30;;;;;;4982004;28;20027;-71
2021/04/28 04:08:59;;;;;;;3.47;1.75;;;6.10;62.20;;;;;;4996322;28;20034;-71
2021/04/28 04:11:25;;;;;;;3.10;1.90;;;6.10;62.20;;;;;;4979229;28;20127;-71
2021/04/28 04:13:51;;;;;;;3.80;1.90;;;6.10;62.20;;;;;;4978993;28;20049;-70
2021/04/28 04:16:17;;;;;;;3.50;1.92;;;6.10;62.30;;;;;;4980983;28;20039;-70
2021/04/28 04:18:43;;;;;;;4.18;2.10;;;6.10;62.30;;;;;;4978748;28;20037;-69
2021/04/28 04:21:09;;;;;;;6.05;1.77;;;6.10;62.50;;;;;;4978825;28;20483;-71
2021/04/28 04:23:38;;;;;;;2.97;1.60;;;6.10;62.30;;;;;;4976898;28;20055;-70
2021/04/28 04:26:03;;;;;;;4.25;2.05;;;6.10;62.20;;;;;;4980477;28;20022;-70
2021/04/28 04:28:29;;;;;;;3.50;1.88;;;6.10;62.10;;;;;;4980724;28;20101;-69
2021/04/28 04:30:55;;;;;;;4.22;2.45;;;6.20;62.10;;;;;;4982488;28;20050;-70
2021/04/28 04:33:21;;;;;;;6.68;2.35;;;6.10;62.20;;;;;;4979434;28;20030;-69
2021/04/28 04:35:46;;;;;;;8.60;2.42;;;6.20;62.80;;;;;;4977917;28;20030;-69
2021/04/28 04:38:13;;;;;;;4.00;2.03;;;6.20;62.10;;;;;;4977262;28;20065;-69
2021/04/28 04:40:39;;;;;;;5.07;2.38;;;6.20;62.10;;;;;;4977613;28;20026;-69
2021/04/28 04:43:05;;;;;;;4.93;2.17;;;6.20;62.00;;;;;;4979072;28;20038;-69
2021/04/28 04:45:35;;;;;;;4.55;2.20;;;6.20;62.10;;;;;;4978723;28;20038;-70
2021/04/28 04:48:02;;;;;;;4.20;1.92;;;6.30;62.10;;;;;;4977487;28;20043;-70
2021/04/28 04:50:29;;;;;;;4.30;2.30;;;6.30;62.00;;;;;;4978323;28;20081;-69
2021/04/28 04:52:55;;;;;;;4.38;2.50;;;6.30;62.00;;;;;;4979252;28;20033;-70
2021/04/28 04:55:22;;;;;;;4.97;1.90;;;6.30;62.10;;;;;;4977209;28;20037;-70
2021/04/28 04:57:49;;;;;;;5.22;2.63;;;6.30;61.90;;;;;;4974432;28;20078;-70
2021/04/28 05:00:15;;;;;;;12.50;2.83;;;6.40;62.00;;;;;;4976960;28;20042;-70
2021/04/28 05:02:41;;;;;;;5.30;2.28;;;6.40;62.00;;;;;;4979112;28;20031;-69
2021/04/28 05:05:07;;;;;;;5.82;2.78;;;6.40;61.80;;;;;;4983490;28;20034;-69
2021/04/28 05:07:33;;;;;;;4.50;2.30;;;6.40;61.70;;;;;;4981934;28;20027;-69
2021/04/28 05:09:59;;;;;;;6.82;2.83;;;6.50;61.60;;;;;;4982748;28;20085;-70
2021/04/28 05:12:24;;;;;;;4.85;2.63;;;6.50;61.40;;;;;;4973821;28;20109;-70
2021/04/28 05:14:50;;;;;;;5.75;2.78;;;6.50;61.30;;;;;;4980295;28;20062;-69
2021/04/28 05:17:16;;;;;;;6.32;2.58;;;6.50;61.10;;;;;;4980940;28;20122;-69
2021/04/28 05:19:41;;;;;;;4.05;2.60;;;6.50;61.00;;;;;;4982739;28;20085;-69
2021/04/28 05:22:07;;;;;;;6.28;2.70;;;6.50;60.80;;;;;;4981500;28;20450;-70
2021/04/28 05:24:33;;;;;;;6.47;2.60;;;6.50;60.60;;;;;;4982311;28;20061;-70
2021/04/28 05:27:00;;;;;;;4.78;2.50;;;6.60;60.60;;;;;;4982049;28;20153;-70
2021/04/28 05:29:25;;;;;;;4.72;2.97;;;6.60;60.40;;;;;;4977926;28;20111;-71
2021/04/28 05:31:51;;;;;;;4.75;2.92;;;6.60;60.50;;;;;;4981530;28;20110;-72
2021/04/28 05:34:17;;;;;;;4.20;2.58;;;6.70;60.50;;;;;;4981516;28;20442;-72
2021/04/28 05:36:43;;;;;;;6.40;2.90;;;6.70;60.20;;;;;;4983321;28;20030;-70
2021/04/28 05:39:08;;;;;;;5.32;2.47;;;6.70;60.20;;;;;;4979555;28;20046;-72
2021/04/28 05:41:34;;;;;;;4.72;2.67;;;6.80;60.10;;;;;;4979608;28;20030;-71
2021/04/28 05:44:01;;;;;;;8.57;3.20;;;6.80;60.00;;;;;;4983271;28;20109;-72
2021/04/28 05:46:27;;;;;;;5.65;3.00;;;6.90;59.90;;;;;;4978379;28;20027;-71
2021/04/28 05:48:53;;;;;;;6.45;2.95;;;6.90;59.40;;;;;;4980148;28;20037;-71
2021/04/28 05:51:19;;;;;;;6.22;3.00;;;6.90;59.20;;;;;;4982244;28;20113;-70
2021/04/28 05:53:44;;;;;;;4.45;2.90;;;6.90;59.20;;;;;;4982740;28;20118;-70
2021/04/28 05:56:10;;;;;;;4.97;2.97;;;6.90;59.40;;;;;;4983654;28;20060;-70
2021/04/28 05:58:35;;;;;;;5.03;3.03;;;6.90;59.20;;;;;;4983066;28;20030;-69
2021/04/28 06:01:01;;;;;;;4.82;3.17;;;6.90;59.00;;;;;;4981491;28;20038;-69
2021/04/28 06:03:27;;;;;;;4.25;2.88;;;7.00;58.90;;;;;;4984467;28;20066;-71
2021/04/28 06:05:56;;;;;;;4.97;3.10;;;7.00;58.80;;;;;;4981627;28;20110;-72
2021/04/28 06:08:22;;;;;;;5.60;3.30;;;7.10;58.70;;;;;;4981961;28;20019;-71
2021/04/28 06:10:48;;;;;;;5.65;2.72;;;7.10;59.00;;;;;;4983142;28;20093;-69
2021/04/28 06:13:13;;;;;;;5.88;3.22;;;7.20;58.30;;;;;;4998896;28;20117;-69
2021/04/28 06:15:40;;;;;;;5.15;2.90;;;7.30;58.20;;;;;;4980010;28;20042;-69
2021/04/28 06:18:06;;;;;;;6.43;2.70;;;7.30;58.00;;;;;;4980501;28;20073;-69
2021/04/28 06:20:33;;;;;;;7.53;3.45;;;7.40;58.50;;;;;;4980967;28;20057;-70
2021/04/28 06:23:01;;;;;;;4.70;2.70;;;7.40;57.90;;;;;;4982418;28;20030;-70
2021/04/28 06:25:27;;;;;;;5.60;3.10;;;7.50;57.60;;;;;;4981280;28;20476;-70
2021/04/28 06:27:53;;;;;;;4.38;2.80;;;7.60;57.40;;;;;;4979684;28;20030;-70
2021/04/28 06:30:19;;;;;;;4.85;3.10;;;7.60;57.30;;;;;;4982487;28;20134;-70
2021/04/28 06:32:45;;;;;;;9.98;3.60;;;7.70;57.30;;;;;;4978751;28;20023;-70
2021/04/28 06:35:12;;;;;;;5.80;3.15;;;7.80;56.40;;;;;;4980582;28;20401;-69
2021/04/28 06:37:38;;;;;;;5.80;3.60;;;7.80;56.40;;;;;;4980484;28;20121;-70
2021/04/28 06:40:06;;;;;;;6.28;3.58;;;7.80;56.30;;;;;;4981187;28;20137;-69
2021/04/28 06:42:32;;;;;;;7.05;3.40;;;7.90;56.00;;;;;;4980910;28;20030;-70
2021/04/28 06:44:58;;;;;;;5.78;3.05;;;7.90;55.80;;;;;;4981192;28;20050;-70
2021/04/28 06:47:24;;;;;;;6.53;3.33;;;8.00;55.70;;;;;;4981213;28;20076;-69
2021/04/28 06:49:51;;;;;;;5.05;3.10;;;8.00;55.30;;;;;;4978980;28;20106;-69
2021/04/28 06:52:17;;;;;;;5.50;3.40;;;8.10;55.00;;;;;;4982909;28;20041;-70
2021/04/28 06:54:43;;;;;;;5.53;3.15;;;8.20;55.00;;;;;;4982029;28;20414;-69
2021/04/28 06:57:09;;;;;;;4.20;2.83;;;8.20;54.70;;;;;;4979929;28;20037;-69
2021/04/28 06:59:35;;;;;;;5.20;3.00;;;8.30;54.20;;;;;;4983165;28;20503;-70
2021/04/28 07:02:01;;;;;;;5.88;3.75;;;8.40;54.10;;;;;;4980328;28;20031;-70
2021/04/28 07:04:28;;;;;;;6.32;3.75;;;8.40;53.80;;;;;;4979783;28;20053;-69
2021/04/28 07:06:54;;;;;;;6.05;3.50;;;8.50;53.90;;;;;;4983767;28;21603;-70
2021/04/28 07:09:20;;;;;;;6.15;3.13;;;8.50;52.50;;;;;;4997200;28;20484;-71
2021/04/28 07:11:49;;;;;;;6.50;3.70;;;8.60;52.40;;;;;;4979201;28;20029;-70
2021/04/28 07:14:16;;;;;;;5.22;3.20;;;8.60;52.10;;;;;;4980805;28;20038;-70
2021/04/28 07:16:42;;;;;;;5.38;3.60;;;8.70;51.70;;;;;;4982753;28;20092;-68
2021/04/28 07:19:08;;;;;;;6.28;2.90;;;8.80;51.80;;;;;;4981874;28;20034;-68
2021/04/28 07:21:34;;;;;;;6.55;3.80;;;8.80;51.70;;;;;;4998079;28;20030;-69
2021/04/28 07:24:01;;;;;;;6.07;3.55;;;8.90;50.70;;;;;;4979068;28;20038;-68
2021/04/28 07:26:31;;;;;;;5.10;3.90;;;9.00;50.50;;;;;;4972863;28;20034;-69
2021/04/28 07:28:57;;;;;;;7.75;3.97;;;9.10;50.50;;;;;;4978887;28;20698;-69
2021/04/28 07:31:26;;;;;;;8.18;4.65;;;9.20;49.60;;;;;;4976034;28;20105;-69
2021/04/28 07:33:52;;;;;;;9.90;3.97;;;9.20;49.70;;;;;;4979565;28;20042;-69
2021/04/28 07:36:18;;;;;;;6.20;3.70;;;9.30;49.30;;;;;;4980468;28;20132;-69
2021/04/28 07:38:44;;;;;;;4.90;3.55;;;9.40;49.10;;;;;;4976344;28;20107;-70
2021/04/28 07:41:10;;;;;;;6.22;3.42;;;9.50;48.90;;;;;;4979792;28;20506;-70
2021/04/28 07:43:36;;;;;;;6.35;3.70;;;9.60;48.20;;;;;;4995879;28;20042;-68
2021/04/28 07:46:02;;;;;;;5.07;3.50;;;9.60;48.20;;;;;;4981582;28;20041;-69
2021/04/28 07:48:28;;;;;;;6.15;3.75;;;9.70;48.50;;;;;;4982322;28;20173;-70
2021/04/28 07:50:54;;;;;;;7.75;4.03;;;9.70;48.00;;;;;;4979860;28;20026;-69
2021/04/28 07:53:20;;;;;;;6.75;3.20;;;9.80;47.80;;;;;;4980449;28;20101;-69
2021/04/28 07:55:49;;;;;;;7.90;3.60;;;9.80;48.30;;;;;;4978734;28;20022;-69
2021/04/28 07:58:16;;;;;;;5.85;3.75;;;9.80;48.40;;;;;;4977582;28;20062;-69
2021/04/28 08:00:43;;;;;;;6.90;3.83;;;9.90;47.80;;;;;;4993444;23;20096;-69
2021/04/28 08:03:09;;;;;;;7.43;3.42;;;10.00;47.30;;;;;;4980004;28;20437;-70
2021/04/28 08:05:35;;;;;;;7.38;3.92;;;10.10;46.80;;;;;;4979744;28;20026;-69
2021/04/28 08:08:01;;;;;;;6.45;3.72;;;10.20;46.60;;;;;;4978634;28;20601;-70
2021/04/28 08:10:28;;;;;;;8.63;3.75;;;10.20;46.60;;;;;;4967725;28;20492;-69
2021/04/28 08:12:54;;;;;;;4.57;3.38;;;10.30;46.50;;;;;;4961506;28;20069;-69
2021/04/28 08:15:23;;;;;;;5.00;3.97;;;10.30;46.30;;;;;;4961302;28;20035;-70
2021/04/28 08:17:49;;;;;;;6.63;4.30;;;10.30;44.90;;;;;;4962299;28;20039;-68
2021/04/28 08:20:15;;;;;;;4.70;3.60;;;10.40;44.90;;;;;;4960093;28;20109;-68
2021/04/28 08:22:42;;;;;;;7.47;3.42;;;10.40;44.50;;;;;;4959236;28;20667;-68
2021/04/28 08:25:11;;;;;;;8.77;4.45;;;10.50;44.80;;;;;;4963235;28;20035;-69
2021/04/28 08:27:37;;;;;;;4.85;3.45;;;10.50;44.60;;;;;;4961780;28;20034;-68
2021/04/28 08:30:08;;;;;;;9.98;4.28;;;10.50;45.20;;;;;;4960457;28;20030;-68
2021/04/28 08:32:34;;;;;;;6.45;4.13;;;10.50;44.80;;;;;;4961116;28;20027;-69
2021/04/28 08:35:01;;;;;;;10.10;4.57;;;10.60;43.90;;;;;;4961019;28;20042;-69
2021/04/28 08:37:27;;;;;;;8.07;3.85;;;10.70;43.20;;;;;;4963062;28;20027;-69
2021/04/28 08:39:53;;;;;;;7.00;3.58;;;10.70;43.10;;;;;;4964810;28;20513;-69
2021/04/28 08:42:19;;;;;;;7.60;3.70;;;10.80;43.20;;;;;;4965426;28;20031;-69
2021/04/28 08:44:45;;;;;;;7.80;3.53;;;10.90;42.60;;;;;;4965177;28;20494;-69
2021/04/28 08:47:13;;;;;;;5.93;3.60;;;11.00;42.70;;;;;;4964969;28;20018;-69
2021/04/28 08:49:42;;;;;;;7.47;3.80;;;11.00;41.80;;;;;;4964378;28;20027;-69
2021/04/28 08:52:08;;;;;;;5.43;3.95;;;11.10;41.70;;;;;;4964317;28;20521;-69
2021/04/28 08:54:36;;;;;;;6.47;4.13;;;11.20;41.40;;;;;;4965946;28;20118;-70
2021/04/28 08:57:02;;;;;;;5.25;3.83;;;11.20;40.70;;;;;;4963245;28;20041;-69
2021/04/28 08:59:28;;;;;;;4.88;3.58;;;11.30;40.00;;;;;;4964793;28;20035;-69
2021/04/28 09:02:21;;;;;;;6.40;4.20;;;11.40;40.70;;;;;;4964849;28;20046;-69
2021/04/28 09:05:07;;;;;;;5.95;3.67;;;11.40;40.10;;;;;;4963494;28;20069;-69
2021/04/28 09:07:33;;;;;;;6.05;3.78;;;11.40;40.00;;;;;;4964113;28;20063;-69
2021/04/28 09:10:04;;;;;;;6.18;3.90;;;11.40;40.00;;;;;;4960159;28;20035;-70
2021/04/28 09:12:30;;;;;;;6.38;4.10;;;11.50;40.70;;;;;;4968246;28;20107;-70
2021/04/28 09:14:56;;;;;;;5.47;3.50;;;11.50;41.30;;;;;;4964315;28;20375;-70
2021/04/28 09:17:22;;;;;;;6.57;3.75;;;11.60;40.70;;;;;;4963904;28;20119;-70
2021/04/28 09:19:54;;;;;;;6.72;3.70;;;11.70;40.00;;;;;;4963522;28;20034;-69
2021/04/28 09:22:21;;;;;;;6.20;3.58;;;11.80;39.50;;;;;;4966495;28;20110;-70
2021/04/28 09:24:48;;;;;;;8.85;4.05;;;11.90;39.00;;;;;;4965042;28;20041;-69
2021/04/28 09:27:34;;;;;;;7.72;3.58;;;12.00;38.30;;;;;;4961789;28;20460;-68
2021/04/28 09:30:02;;;;;;;5.95;3.50;;;12.00;38.00;;;;;;4964286;28;20093;-68
2021/04/28 09:32:32;;;;;;;3.67;2.78;;;12.10;35.80;;;;;;4961141;28;20031;-68
2021/04/28 09:35:14;;;;;;;6.68;3.40;;;12.10;36.10;;;;;;4963237;28;20039;-68
2021/04/28 09:37:56;;;;;;;7.28;3.50;;;12.10;35.90;;;;;;4963682;28;20038;-68
2021/04/28 09:40:42;;;;;;;5.95;3.22;;;12.20;36.30;;;;;;4962235;28;20066;-68
2021/04/28 09:43:08;;;;;;;4.70;3.45;;;12.20;36.40;;;;;;4964165;28;20516;-68
2021/04/28 09:45:49;;;;;;;6.18;4.10;;;12.30;35.90;;;;;;4962557;28;20037;-68
2021/04/28 09:48:24;;;;;;;3.92;3.15;;;12.30;36.00;;;;;;4962100;28;20054;-68
2021/04/28 09:51:06;;;;;;;6.93;3.78;;;12.40;36.60;;;;;;4978273;28;20559;-68
2021/04/28 09:53:32;;;;;;;6.95;4.10;;;12.40;35.40;;;;;;4965084;28;20035;-67
2021/04/28 09:55:58;;;;;;;5.20;3.50;;;12.40;36.10;;;;;;4963917;28;20110;-68
2021/04/28 09:58:50;;;;;;;5.05;3.50;;;12.50;36.30;;;;;;4963191;28;20038;-68
2021/04/28 10:01:16;;;;;;;;;;;12.50;36.50;;;;;;4962907;28;20312;-67
2021/04/28 10:03:43;;;;;;;9.93;3.72;;;12.60;36.30;;;;;;4964427;28;19914;-68
2021/04/28 10:06:09;;;;;;;8.52;4.28;;;12.60;36.10;;;;;;4969914;28;20027;-68
2021/04/28 10:08:35;;;;;;;6.28;3.83;;;12.70;35.60;;;;;;4966131;28;20030;-67
2021/04/28 10:11:01;;;;;;;4.93;3.50;;;12.70;35.20;;;;;;4964015;28;20031;-68
2021/04/28 10:13:27;;;;;;;6.82;3.80;;;12.70;36.10;;;;;;4963733;28;20043;-67
2021/04/28 10:15:53;;;;;;;7.60;3.75;;;12.80;35.00;;;;;;4963448;28;20358;-67
2021/04/28 10:18:22;;;;;;;5.45;3.40;;;12.90;36.00;;;;;;4963668;28;20078;-67
2021/04/28 10:20:50;;;;;;;5.95;4.32;;;13.00;36.70;;;;;;4962452;28;20106;-69
2021/04/28 10:23:17;;;;;;;5.78;4.22;;;13.00;35.40;;;;;;4961425;28;20134;-69
2021/04/28 10:25:48;;;;;;;4.95;3.70;;;13.00;36.20;;;;;;4963120;28;20038;-69
2021/04/28 10:28:14;;;;;;;9.32;4.90;;;13.10;37.30;;;;;;4964312;28;20027;-65
2021/04/28 10:30:46;;;;;;;6.05;4.07;;;13.10;36.60;;;;;;4963009;28;20038;-66
2021/04/28 10:33:20;;;;;;;6.40;4.07;;;13.20;36.80;;;;;;4965165;28;20089;-68
2021/04/28 10:35:46;;;;;;;7.32;4.63;;;13.20;36.50;;;;;;4965372;28;20037;-67
2021/04/28 10:38:12;;;;;;;6.30;4.55;;;13.20;36.20;;;;;;4965104;28;20106;-67
2021/04/28 10:40:38;;;;;;;8.40;4.78;;;13.30;36.40;;;;;;4967085;28;20069;-68
2021/04/28 10:43:10;;;;;;;7.00;4.53;;;13.20;36.60;;;;;;4965185;28;20070;-69
2021/04/28 10:45:39;;;;;;;8.23;4.88;;;13.30;36.70;;;;;;4960760;28;20441;-68
2021/04/28 10:48:14;;;;;;;6.57;4.70;;;13.30;36.90;;;;;;4964894;28;20031;-70
2021/04/28 10:50:47;;;;;;;7.70;4.40;;;13.40;37.00;;;;;;4960936;28;20061;-69
2021/04/28 10:53:15;;;;;;;5.60;4.68;;;13.50;37.10;;;;;;4961186;28;20034;-69
2021/04/28 10:55:42;;;;;;;9.63;5.40;;;13.50;37.20;;;;;;4964781;28;20077;-67
2021/04/28 10:58:36;;;;;;;8.02;5.20;;;13.60;37.00;;;;;;4963398;28;20054;-65
2021/04/28 11:01:02;;;;;;;7.32;4.68;;;13.70;37.60;;;;;;4959686;28;20050;-65
2021/04/28 11:03:51;;;;;;;8.13;4.95;;;13.70;37.40;;;;;;4964295;28;20034;-66
2021/04/28 11:06:17;;;;;;;8.00;5.03;;;13.90;38.20;;;;;;4962446;28;20031;-68
2021/04/28 11:08:49;;;;;;;8.82;5.75;;;14.10;39.20;;;;;;4962433;28;20540;-66
2021/04/28 11:11:30;;;;;;;7.53;5.25;;;14.50;38.70;;;;;;4963960;28;20024;-66
2021/04/28 11:16:44;;;;;;;6.90;5.22;;;15.80;36.60;;;;;;4962656;28;20316;-67
2021/04/28 11:19:17;;;;;;;6.63;5.07;;;17.20;34.60;;;;;;4965564;28;20461;-68
2021/04/28 11:21:44;;;;;;;5.82;5.03;;;18.60;33.70;;;;;;4964015;28;20126;-66
2021/04/28 11:24:15;;;;;;;7.82;5.25;;;19.90;30.40;;;;;;4963650;28;20161;-67
2021/04/28 11:26:49;;;;;;;8.00;5.40;;;20.90;28.20;;;;;;4963149;28;20046;-67
2021/04/28 11:29:17;;;;;;;9.20;5.45;;;21.80;27.20;;;;;;4961808;28;20516;-68
2021/04/28 11:31:51;;;;;;;6.72;5.50;;;22.70;26.80;;;;;;4961938;28;20078;-68
2021/04/28 11:34:34;;;;;;;7.85;5.82;;;23.60;26.30;;;;;;4962355;28;20087;-66
2021/04/28 11:37:04;;;;;;;7.15;5.22;;;23.90;26.10;;;;;;4967917;28;20473;-67
2021/04/28 11:39:42;;;;;;;11.40;5.93;;;24.20;25.30;;;;;;4961124;28;20031;-67
2021/04/28 11:42:14;;;;;;;7.10;4.93;;;24.20;25.00;;;;;;4960737;28;20043;-67
2021/04/28 11:44:49;;;;;;;8.75;5.82;;;24.20;25.50;;;;;;4961797;28;20106;-67
2021/04/28 11:47:22;;;;;;;9.60;6.53;;;24.20;24.40;;;;;;4961386;28;20038;-67
2021/04/28 11:49:52;;;;;;;7.80;6.13;;;24.20;24.20;;;;;;4965189;28;20053;-66
2021/04/28 11:52:20;;;;;;;9.32;6.03;;;23.90;23.90;;;;;;4961174;28;20035;-67
2021/04/28 11:54:51;;;;;;;7.47;5.82;;;23.40;25.70;;;;;;4965071;28;20043;-66
2021/04/28 11:57:29;;;;;;;8.23;5.72;;;23.10;25.80;;;;;;4962281;28;20042;-67
2021/04/28 12:00:11;;;;;;;7.72;6.05;;;22.80;26.10;;;;;;4960015;28;20046;-66
2021/04/28 12:02:38;;;;;;;10.00;5.97;;;22.30;26.70;;;;;;4959343;28;20086;-67
2021/04/28 12:05:05;;;;;;;8.02;5.80;;;22.00;26.70;;;;;;4960368;28;20031;-67
2021/04/28 12:07:32;;;;;;;8.63;6.07;;;21.60;27.10;;;;;;4960584;28;20045;-67
2021/04/28 12:09:58;;;;;;;10.07;6.10;;;21.50;26.80;;;;;;4960923;28;20058;-67
2021/04/28 12:12:31;;;;;;;10.98;6.95;;;21.40;27.10;;;;;;4959336;28;20101;-68
2021/04/28 12:15:06;;;;;;;7.85;6.35;;;21.40;26.70;;;;;;4959741;28;20045;-67
2021/04/28 12:17:36;;;;;;;8.18;6.75;;;21.40;26.40;;;;;;4960592;28;20034;-67
2021/04/28 12:20:05;;;;;;;8.90;6.30;;;21.40;27.00;;;;;;4960904;28;20043;-67
2021/04/28 12:22:33;;;;;;;7.13;6.00;;;21.30;27.50;;;;;;4960428;28;20461;-68
2021/04/28 12:25:01;;;;;;;7.93;7.00;;;21.30;27.40;;;;;;4955318;28;20039;-67
2021/04/28 12:27:41;;;;;;;8.68;6.30;;;21.30;27.30;;;;;;4961032;28;20027;-68
2021/04/28 12:30:11;;;;;;;9.40;7.68;;;21.50;26.30;;;;;;4960891;28;20114;-67
2021/04/28 12:32:40;;;;;;;9.77;6.80;;;21.80;25.70;;;;;;4961363;28;20069;-68
2021/04/28 12:35:16;;;;;;;10.13;6.40;;;22.00;26.10;;;;;;4961694;28;20139;-67
2021/04/28 12:38:01;;;;;;;9.30;7.22;;;22.30;26.00;;;;;;4959768;28;20101;-67
2021/04/28 12:40:45;;;;;;;9.63;6.90;;;22.40;25.20;;;;;;4961102;28;20393;-67
2021/04/28 12:43:16;;;;;;;12.05;7.05;;;22.60;26.10;;;;;;4958657;28;20114;-67
2021/04/28 12:45:42;;;;;;;10.25;7.65;;;22.90;25.90;;;;;;4960296;28;20499;-67
2021/04/28 12:48:11;;;;;;;11.55;7.38;;;23.30;24.80;;;;;;4959920;28;20027;-68
2021/04/28 12:50:39;;;;;;;10.73;6.95;;;23.40;24.00;;;;;;4960293;28;20038;-68
2021/04/28 12:53:07;;;;;;;9.38;6.72;;;23.60;24.30;;;;;;4961168;28;20035;-68
2021/04/28 12:55:41;;;;;;;8.75;6.47;;;23.90;24.40;;;;;;4960993;28;20114;-68
2021/04/28 12:58:08;;;;;;;7.15;5.85;;;24.10;25.40;;;;;;4958268;28;20035;-68
2021/04/28 13:00:44;;;;;;;9.27;6.45;;;24.30;25.40;;;;;;4958239;28;20057;-67